Kezdőlap
METAR-TAF:

METAR-TAF

Repülőterek :

Dzsidda, Szaúd-Arábia

földrajzi szélesség: 21-42N, földrajzi hosszúság: 039-11E, magasság: 15 m

Jelenlegi meteorológiai megfigyelések

A jelentés 6 perccel ezelõtt készült, 01:00 UTC
Északi szél 10 kt
Hőmérséklet 26°C
Páratartalom 61%
Légköri nyomás 1006 hPa
Látótávolság 10 km, vagy több
felhőtlen 1500 m magasságban, és nincs gomolyfelhõ

METAR: OEJN 240100Z 36010KT CAVOK 26/18 Q1006 NOSIG

Idő: 04:06 (01:06 UTC)

Előrejelzés

A jelentés 2 órával és 6 perccel ezelõtt készült, 23:00 UTC
Az előrejelzés 24-én 00 óra UTC és 25-én 06 óra UTC között érvényes
Északi szél 8 kt
Látótávolság 10 km, vagy több
felhőtlen 1500 m magasságban, és nincs gomolyfelhõ
24-én 06 óra UTC és 24-én 08 óra UTC között fokozatosan kialakuló
Észak-északnyugati szél 5 kt széllökések: 15 kt

TAF: OEJN 232300Z 2400/2506 36008KT CAVOK BECMG 2406/2408 33005G15KT

Meteorológiai megfigyelések és előrejelzések több, mint 4000 repülőtéren (METAR és TAF jelentéseket).

A térképen piros és sárga pontok jelzik az elérhető meteorológiai állomásokat.

Mozgassa az egeret a pont fölött, hogy megjelenjen az állomás neve.

Azután kattintson az időjárási megfigyelések és előrejelzések megtekintéséhez.

A térkép megváltoztatása: kattintson a fekete keresztel jelölt zöld gombra ráközelítéshez, a vonallal jelölt zöld gombra távolításhoz, vagy a zöld nyilakra a szomszédos térképek eléréséhez.


METAR-TAF: